Brandon, Minnesota
Current Conditions -  °F | °C
As of 2:53 AM on Monday 24 Nov 2014 (Local Time) from KAXN Reporting Station
Overcast Overcast  
Wind Chill:   Ceiling: 1200
Heat Index: 18°   Visibility: 10mi
Dew Point: 13°   Wind: 18mph
Humidity: 81%   Direction: 320°NW
Pressure: 29.44"   Gusts: 26mph
Location:  45.97°N, 95.6°W
Report Text: KAXN 240853Z AUTO 32016G23KT 10SM OVC012 M08/M11 A2944 RMK AO2 PK WND 34026/0809 SLP989 T10781106 55000
Loading
Personal Weather Stations






























Interactive Weather Map New forecast layout! Learn more

10-Day Weather Forecast

Advertisements
Track Severe Weather on mobile